Abraham Lincoln Capital Airport
KSPI : now visible

Airfield :











YOU CAN JOIN US ON...

 
LOGIN :

Register | Disclaimer

   EN    FR    IT 

 









Legend :    VFR   Marginal VFR   IFR   Intensive IFR   Very Intensive IFR
Visi :
Ceiling :
>= 8 km
>= 3000ft
5 to 8 km
1000 to 3000 ft
1500m to 5 km
500 to 1000 ft
800 to 1500m
200 to 500 ft
< 800m
< 200 ft
Symbols :   Thunderstorms  Fog  Heavy snow  Heavy precipitations  Wind > 20 kt







- Airport Elevation : 598 ft
- IATA code : SPI


KSPI - Abraham Lincoln Capital

CURRENT METAR :
  • 191452Z 23009KT 10SM CLR 30/24 A2991 RMK AO2 SLP122 T03000239 50005

EXPIRED METARs :
  • 191352Z 22010G20KT 10SM CLR 28/24 A2991 RMK AO2 SLP123 T02830239
  • 191252Z 21006KT 10SM CLR 27/24 A2992 RMK AO2 SLP124 T02670239

TAF KSPI
Valid from the 19 at 12:00 until the 20 at 12:00 UTC


191122Z 1912/2012 20009KT P6SM FEW045 SCT150
FM191500 21011G18KT P6SM FEW045 SCT150
FM200200 20009KT P6SM SKC
KZKC FIR / North America



MET'MAP, your aeronautical weather chart ! - Copyright ORBIFLY December 2007 - Disclaimer

ORBIFLY MET'MAP TEAM :

Programming & Development : Alexandra Zaïnal
Concept & Development : Baudouin d'Aumeries
Co-Development & Prog : Marc-Olivier Méhu
Technical & hardware support : Manuel Goepfert

Contact : metmap@orbifly.com




SOURCES & CREDITS :

   NOAA       Earth
Advisory